Time;durP1;ratioP1;P1;durP2;ratioP2;P2;SDS_P1;SDS_P2;PMS_P1;PMS_P2;Temp;Humidity;BMP_temperature;BMP_pressure;BME280_temperature;BME280_humidity;BME280_pressure;Samples;Min_cycle;Max_cycle;Signal;HPM_P1;HPM_P2
2022/12/02 00:01:33;;;;;;;64.13;41.67;;;;;;;;;;5085059;28;20221;-83
2022/12/02 00:04:01;;;;;;;56.95;41.67;;;;;;;;;;5083851;28;20222;-84
2022/12/02 00:06:30;;;;;;;60.42;40.70;;;;;;;;;;5085483;28;20226;-84
2022/12/02 00:09:03;;;;;;;71.10;43.75;;;;;;;;;;5083699;28;20206;-84
2022/12/02 00:11:32;;;;;;;63.67;41.45;;;;;;;;;;5087014;28;20188;-84
2022/12/02 00:14:00;;;;;;;59.55;41.58;;;;;;;;;;5084337;28;20200;-84
2022/12/02 00:16:28;;;;;;;73.20;41.45;;;;;;;;;;5086057;28;20228;-84
2022/12/02 00:18:56;;;;;;;74.55;42.60;;;;;;;;;;5085337;28;20273;-84
2022/12/02 00:21:23;;;;;;;72.47;39.80;;;;;;;;;;5086529;28;20275;-84
2022/12/02 00:23:50;;;;;;;72.45;44.65;;;;;;;;;;5086480;28;20296;-83
2022/12/02 00:26:19;;;;;;;71.07;41.92;;;;;;;;;;5086746;28;20241;-84
2022/12/02 00:28:46;;;;;;;59.25;40.85;;;;;;;;;;5085518;28;20209;-84
2022/12/02 00:31:13;;;;;;;65.72;42.72;;;;;;;;;;5086125;28;20660;-85
2022/12/02 00:33:40;;;;;;;75.72;44.13;;;;;;;;;;5085948;28;20203;-84
2022/12/02 00:36:08;;;;;;;65.68;39.90;;;;;;;;;;5085069;28;20626;-84
2022/12/02 00:38:35;;;;;;;66.40;43.88;;;;;;;;;;5084089;28;20207;-84
2022/12/02 00:41:02;;;;;;;73.47;41.50;;;;;;;;;;5087109;28;20211;-84
2022/12/02 00:46:34;;;;;;;70.90;41.20;;;;;;;;;;5086557;28;20238;-84
2022/12/02 00:49:02;;;;;;;66.43;42.13;;;;;;;;;;5085812;28;20208;-84
2022/12/02 00:51:30;;;;;;;62.65;40.22;;;;;;;;;;5086380;28;20636;-84
2022/12/02 00:53:57;;;;;;;71.30;42.15;;;;;;;;;;5085352;28;20205;-84
2022/12/02 00:56:24;;;;;;;78.30;42.00;;;;;;;;;;5084686;28;20282;-84
2022/12/02 00:58:53;;;;;;;62.17;40.00;;;;;;;;;;5083549;28;20216;-84
2022/12/02 01:01:20;;;;;;;83.35;42.05;;;;;;;;;;5084723;28;20214;-84
2022/12/02 01:03:48;;;;;;;75.03;42.60;;;;;;;;;;5083635;28;20378;-84
2022/12/02 01:06:15;;;;;;;72.63;40.42;;;;;;;;;;5083486;28;20233;-83
2022/12/02 01:08:42;;;;;;;64.72;40.38;;;;;;;;;;5084244;28;20201;-84
2022/12/02 01:11:10;;;;;;;71.25;40.40;;;;;;;;;;5083636;28;20197;-84
2022/12/02 01:13:37;;;;;;;74.53;41.53;;;;;;;;;;5084129;28;20212;-83
2022/12/02 01:16:06;;;;;;;71.03;41.75;;;;;;;;;;5083593;28;20267;-84
2022/12/02 01:18:33;;;;;;;70.38;41.05;;;;;;;;;;5084975;28;20199;-84
2022/12/02 01:21:00;;;;;;;68.68;40.22;;;;;;;;;;5082582;28;20212;-83
2022/12/02 01:23:28;;;;;;;64.63;40.33;;;;;;;;;;5082616;28;20224;-83
2022/12/02 01:25:55;;;;;;;66.50;42.28;;;;;;;;;;5082033;28;20719;-83
2022/12/02 01:28:22;;;;;;;79.32;43.63;;;;;;;;;;5081731;28;20211;-83
2022/12/02 01:30:49;;;;;;;66.78;39.10;;;;;;;;;;5082874;28;20205;-84
2022/12/02 01:33:17;;;;;;;74.47;40.28;;;;;;;;;;5081723;28;20206;-85
2022/12/02 01:35:44;;;;;;;67.13;40.67;;;;;;;;;;5083018;28;20225;-84
2022/12/02 01:38:12;;;;;;;67.72;40.10;;;;;;;;;;5083356;28;20208;-85
2022/12/02 01:40:39;;;;;;;68.80;41.00;;;;;;;;;;5081834;28;20208;-84
2022/12/02 01:43:06;;;;;;;73.60;40.60;;;;;;;;;;5081370;28;20248;-84
2022/12/02 01:45:33;;;;;;;71.75;39.78;;;;;;;;;;5083026;28;20220;-84
2022/12/02 01:48:01;;;;;;;70.38;39.80;;;;;;;;;;5083432;28;20205;-84
2022/12/02 01:50:30;;;;;;;63.28;38.78;;;;;;;;;;5082293;28;20203;-85
2022/12/02 01:52:57;;;;;;;66.65;38.33;;;;;;;;;;5082941;28;20213;-85
2022/12/02 01:55:25;;;;;;;66.13;38.92;;;;;;;;;;5081410;28;20225;-82
2022/12/02 01:57:52;;;;;;;61.85;37.42;;;;;;;;;;5083435;28;20204;-84
2022/12/02 02:00:20;;;;;;;72.35;42.45;;;;;;;;;;5100193;28;20210;-85
2022/12/02 02:02:47;;;;;;;61.75;39.75;;;;;;;;;;5104261;28;20224;-85
2022/12/02 02:05:16;;;;;;;77.18;40.95;;;;;;;;;;5103432;28;20245;-84
2022/12/02 02:07:46;;;;;;;72.47;41.53;;;;;;;;;;5103501;28;20201;-84
2022/12/02 02:10:13;;;;;;;70.00;44.33;;;;;;;;;;5103006;28;20209;-84
2022/12/02 02:12:40;;;;;;;72.50;39.47;;;;;;;;;;5101531;28;20290;-84
2022/12/02 02:15:09;;;;;;;73.65;41.83;;;;;;;;;;5101272;28;20212;-85
2022/12/02 02:17:37;;;;;;;67.47;36.45;;;;;;;;;;5103202;28;20205;-84
2022/12/02 02:20:05;;;;;;;73.30;40.75;;;;;;;;;;5103687;28;20204;-85
2022/12/02 02:22:34;;;;;;;66.40;40.58;;;;;;;;;;5103393;28;20208;-84
2022/12/02 02:25:02;;;;;;;65.97;40.83;;;;;;;;;;5102465;28;20560;-85
2022/12/02 02:27:29;;;;;;;53.85;38.67;;;;;;;;;;5101792;28;20213;-85
2022/12/02 02:29:56;;;;;;;64.40;37.78;;;;;;;;;;5103736;28;20749;-85
2022/12/02 02:32:23;;;;;;;60.22;38.83;;;;;;;;;;5103915;28;20292;-84
2022/12/02 02:34:50;;;;;;;66.45;38.35;;;;;;;;;;5102327;28;20203;-84
2022/12/02 02:37:18;;;;;;;60.97;39.22;;;;;;;;;;5101791;28;20216;-84
2022/12/02 02:39:45;;;;;;;67.03;37.92;;;;;;;;;;5103183;28;20207;-84
2022/12/02 02:42:13;;;;;;;63.40;38.67;;;;;;;;;;5101856;28;20211;-84
2022/12/02 02:44:40;;;;;;;54.42;34.92;;;;;;;;;;5102774;28;20228;-84
2022/12/02 02:47:08;;;;;;;62.15;36.53;;;;;;;;;;5102062;28;20575;-84
2022/12/02 02:49:35;;;;;;;55.60;35.70;;;;;;;;;;5103415;28;20204;-84
2022/12/02 02:52:02;;;;;;;56.28;36.58;;;;;;;;;;5102707;28;20212;-85
2022/12/02 02:54:29;;;;;;;45.03;33.58;;;;;;;;;;5104569;28;20199;-85
2022/12/02 02:56:56;;;;;;;53.55;34.65;;;;;;;;;;5106165;28;20231;-84
2022/12/02 02:59:25;;;;;;;50.63;35.22;;;;;;;;;;5106809;28;20212;-84
2022/12/02 03:01:52;;;;;;;53.67;36.50;;;;;;;;;;5107151;28;20590;-85
2022/12/02 03:04:20;;;;;;;49.38;35.88;;;;;;;;;;5105926;28;20235;-85
2022/12/02 03:06:48;;;;;;;57.75;35.95;;;;;;;;;;5106027;28;20224;-85
2022/12/02 03:09:16;;;;;;;46.28;33.10;;;;;;;;;;5107003;28;20656;-84
2022/12/02 03:11:46;;;;;;;41.33;30.85;;;;;;;;;;5106329;28;20208;-84
2022/12/02 03:14:14;;;;;;;50.60;35.55;;;;;;;;;;5106190;28;20201;-85
2022/12/02 03:16:42;;;;;;;54.92;35.58;;;;;;;;;;5106124;28;20224;-85
2022/12/02 03:19:09;;;;;;;49.92;34.60;;;;;;;;;;5106513;28;20560;-85
2022/12/02 03:21:37;;;;;;;48.35;35.05;;;;;;;;;;5105863;28;20207;-85
2022/12/02 03:24:05;;;;;;;58.15;38.55;;;;;;;;;;5106238;28;20223;-85
2022/12/02 03:26:33;;;;;;;47.03;32.80;;;;;;;;;;5105754;28;20227;-85
2022/12/02 03:29:01;;;;;;;47.70;33.28;;;;;;;;;;5105967;28;20204;-84
2022/12/02 03:31:28;;;;;;;51.63;34.70;;;;;;;;;;5108058;28;20203;-85
2022/12/02 03:33:57;;;;;;;48.75;33.65;;;;;;;;;;5105414;28;20213;-84
2022/12/02 03:36:24;;;;;;;45.65;31.85;;;;;;;;;;5105544;28;20259;-83
2022/12/02 03:38:52;;;;;;;43.78;32.83;;;;;;;;;;5106147;28;20567;-85
2022/12/02 03:41:19;;;;;;;51.15;33.92;;;;;;;;;;5105196;28;20792;-84
2022/12/02 03:43:46;;;;;;;48.58;33.65;;;;;;;;;;5104680;28;20227;-84
2022/12/02 03:46:14;;;;;;;47.25;32.88;;;;;;;;;;5104974;28;20225;-84
2022/12/02 03:48:42;;;;;;;43.05;32.78;;;;;;;;;;5106007;28;20204;-84
2022/12/02 03:51:12;;;;;;;47.35;31.67;;;;;;;;;;5106153;28;20204;-84
2022/12/02 03:53:40;;;;;;;49.88;34.65;;;;;;;;;;5104732;28;20208;-84
2022/12/02 03:56:09;;;;;;;41.63;33.25;;;;;;;;;;5105244;28;20227;-84
2022/12/02 03:58:36;;;;;;;43.60;32.53;;;;;;;;;;5105378;28;20212;-85
2022/12/02 04:01:04;;;;;;;42.10;34.42;;;;;;;;;;5106495;28;20203;-84
2022/12/02 04:03:31;;;;;;;42.85;31.17;;;;;;;;;;5105181;28;20789;-84
2022/12/02 04:05:58;;;;;;;39.13;31.17;;;;;;;;;;5104479;28;20227;-84
2022/12/02 04:08:27;;;;;;;38.70;32.63;;;;;;;;;;5106492;28;20207;-84
2022/12/02 04:10:54;;;;;;;41.83;32.40;;;;;;;;;;5107076;28;20200;-85
2022/12/02 04:13:21;;;;;;;43.25;33.97;;;;;;;;;;5104902;28;20231;-85
2022/12/02 04:15:48;;;;;;;41.00;33.78;;;;;;;;;;5104313;28;20224;-85
2022/12/02 04:18:15;;;;;;;41.00;33.90;;;;;;;;;;5105211;28;20200;-85
2022/12/02 04:20:43;;;;;;;45.30;33.80;;;;;;;;;;5106064;28;20212;-84
2022/12/02 04:23:10;;;;;;;37.90;32.67;;;;;;;;;;5105616;28;20227;-84
2022/12/02 04:25:38;;;;;;;36.50;31.45;;;;;;;;;;5105091;28;20275;-84
2022/12/02 04:28:05;;;;;;;44.35;32.17;;;;;;;;;;5105616;28;20230;-84
2022/12/02 04:30:33;;;;;;;38.85;32.80;;;;;;;;;;5104804;28;20205;-85
2022/12/02 04:33:00;;;;;;;37.03;30.45;;;;;;;;;;5105646;28;20204;-85
2022/12/02 04:35:27;;;;;;;35.80;30.27;;;;;;;;;;5104695;28;20234;-84
2022/12/02 04:37:54;;;;;;;38.03;31.85;;;;;;;;;;5104599;28;20281;-84
2022/12/02 04:40:22;;;;;;;35.50;30.17;;;;;;;;;;5105739;28;20262;-84
2022/12/02 04:42:51;;;;;;;39.38;31.10;;;;;;;;;;5106321;28;20204;-84
2022/12/02 04:45:18;;;;;;;37.10;31.30;;;;;;;;;;5104486;28;20224;-84
2022/12/02 04:47:45;;;;;;;36.08;32.35;;;;;;;;;;5104940;28;20200;-84
2022/12/02 04:50:12;;;;;;;36.70;29.38;;;;;;;;;;5104070;28;20204;-85
2022/12/02 04:52:39;;;;;;;30.80;27.65;;;;;;;;;;5102455;28;20221;-83
2022/12/02 04:55:07;;;;;;;35.88;28.17;;;;;;;;;;5103128;28;20209;-85
2022/12/02 04:57:34;;;;;;;33.22;27.20;;;;;;;;;;5103688;28;20204;-84
2022/12/02 05:00:02;;;;;;;35.53;30.95;;;;;;;;;;5103398;28;20218;-84
2022/12/02 05:02:30;;;;;;;32.45;29.02;;;;;;;;;;5103519;28;20210;-84
2022/12/02 05:04:57;;;;;;;32.22;29.13;;;;;;;;;;5103301;28;20228;-84
2022/12/02 05:07:24;;;;;;;32.40;29.30;;;;;;;;;;5103972;28;20203;-84
2022/12/02 05:09:51;;;;;;;31.23;28.17;;;;;;;;;;5103338;28;20209;-84
2022/12/02 05:12:18;;;;;;;30.02;27.02;;;;;;;;;;5103630;28;20211;-84
2022/12/02 05:14:45;;;;;;;36.60;28.15;;;;;;;;;;5102318;28;20692;-84
2022/12/02 05:17:14;;;;;;;30.08;27.17;;;;;;;;;;5104056;28;20225;-84
2022/12/02 05:19:41;;;;;;;26.77;24.38;;;;;;;;;;5104036;28;20204;-84
2022/12/02 05:22:08;;;;;;;29.10;26.38;;;;;;;;;;5102917;28;20212;-84
2022/12/02 05:24:35;;;;;;;27.50;25.05;;;;;;;;;;5103071;28;20227;-84
2022/12/02 05:27:02;;;;;;;29.45;26.75;;;;;;;;;;5103088;28;20795;-84
2022/12/02 05:29:29;;;;;;;27.70;25.25;;;;;;;;;;5104155;28;20203;-84
2022/12/02 05:31:57;;;;;;;29.10;26.65;;;;;;;;;;5104731;28;20206;-84
2022/12/02 05:34:25;;;;;;;30.17;27.48;;;;;;;;;;5102354;28;20201;-84
2022/12/02 05:36:52;;;;;;;31.63;28.73;;;;;;;;;;5102142;28;20232;-84
2022/12/02 05:39:19;;;;;;;28.77;26.15;;;;;;;;;;5103454;28;20207;-83
2022/12/02 05:41:48;;;;;;;29.77;27.00;;;;;;;;;;5104034;28;20204;-84
2022/12/02 05:44:19;;;;;;;29.35;26.92;;;;;;;;;;5102497;28;20233;-84
2022/12/02 05:46:46;;;;;;;29.75;26.95;;;;;;;;;;5102765;28;20225;-84
2022/12/02 05:49:17;;;;;;;28.98;26.48;;;;;;;;;;5102362;28;20275;-84
2022/12/02 05:51:45;;;;;;;27.45;24.98;;;;;;;;;;5101431;28;20291;-84
2022/12/02 05:54:17;;;;;;;27.08;24.63;;;;;;;;;;5102186;28;20203;-84
2022/12/02 05:56:44;;;;;;;32.22;27.55;;;;;;;;;;5103555;28;20280;-84
2022/12/02 05:59:13;;;;;;;28.95;26.30;;;;;;;;;;5103832;28;20201;-84
2022/12/02 06:01:41;;;;;;;29.15;26.50;;;;;;;;;;5102519;28;20213;-84
2022/12/02 06:04:13;;;;;;;29.73;27.10;;;;;;;;;;5104353;28;20220;-84
2022/12/02 06:06:40;;;;;;;29.77;27.00;;;;;;;;;;5105857;28;20235;-84
2022/12/02 06:09:12;;;;;;;30.77;28.05;;;;;;;;;;5102691;28;20211;-84
2022/12/02 06:11:39;;;;;;;31.50;28.60;;;;;;;;;;5102706;28;20208;-85
2022/12/02 06:14:11;;;;;;;31.42;28.30;;;;;;;;;;5102586;28;20184;-84
2022/12/02 06:16:41;;;;;;;31.55;28.40;;;;;;;;;;5102269;28;20226;-84
2022/12/02 06:19:14;;;;;;;27.77;25.58;;;;;;;;;;5103310;28;20215;-84
2022/12/02 06:21:41;;;;;;;32.10;28.90;;;;;;;;;;5102297;28;20944;-84
2022/12/02 06:24:10;;;;;;;31.25;28.15;;;;;;;;;;5100954;28;20537;-84
2022/12/02 06:26:38;;;;;;;32.58;29.35;;;;;;;;;;5100972;28;20253;-83
2022/12/02 06:29:05;;;;;;;32.22;29.08;;;;;;;;;;5100520;28;20203;-84
2022/12/02 06:31:36;;;;;;;31.83;28.55;;;;;;;;;;5106932;28;20200;-84
2022/12/02 06:34:11;;;;;;;32.38;28.98;;;;;;;;;;5107389;28;20545;-84
2022/12/02 06:36:38;;;;;;;34.00;30.50;;;;;;;;;;5105181;28;20237;-84
2022/12/02 06:39:16;;;;;;;34.70;30.95;;;;;;;;;;5106099;28;20207;-85
2022/12/02 06:41:44;;;;;;;33.83;30.27;;;;;;;;;;5107149;28;20206;-84
2022/12/02 06:47:01;;;;;;;36.65;31.02;;;;;;;;;;5105925;28;20289;-84
2022/12/02 06:49:34;;;;;;;35.95;32.15;;;;;;;;;;5107622;28;20210;-83
2022/12/02 06:52:04;;;;;;;39.92;33.72;;;;;;;;;;5107155;28;20616;-84
2022/12/02 06:54:32;;;;;;;40.40;31.00;;;;;;;;;;5106177;28;20207;-84
2022/12/02 06:57:02;;;;;;;40.40;34.78;;;;;;;;;;5106938;28;20227;-84
2022/12/02 06:59:30;;;;;;;39.63;33.08;;;;;;;;;;5106787;28;20189;-84
2022/12/02 07:01:58;;;;;;;41.15;36.28;;;;;;;;;;5106926;28;20267;-85
2022/12/02 07:04:30;;;;;;;42.13;33.38;;;;;;;;;;5106062;28;20245;-85
2022/12/02 07:07:01;;;;;;;41.53;34.67;;;;;;;;;;5106087;28;20234;-85
2022/12/02 07:09:32;;;;;;;44.80;34.40;;;;;;;;;;5106303;28;20290;-85
2022/12/02 07:12:01;;;;;;;48.60;37.03;;;;;;;;;;5107278;28;20212;-85
2022/12/02 07:14:30;;;;;;;43.00;35.13;;;;;;;;;;5107394;28;20216;-85
2022/12/02 07:17:00;;;;;;;47.17;34.30;;;;;;;;;;5106069;28;20310;-84
2022/12/02 07:19:30;;;;;;;43.58;35.63;;;;;;;;;;5107692;28;20214;-85
2022/12/02 07:21:57;;;;;;;44.17;36.63;;;;;;;;;;5107828;28;20215;-85
2022/12/02 07:24:25;;;;;;;43.72;35.80;;;;;;;;;;5106765;28;20219;-83
2022/12/02 07:26:53;;;;;;;43.95;36.40;;;;;;;;;;5098394;28;20224;-79
2022/12/02 07:29:27;;;;;;;47.55;37.13;;;;;;;;;;5097585;28;20212;-78
2022/12/02 07:31:54;;;;;;;46.25;37.75;;;;;;;;;;5097769;28;20186;-79
2022/12/02 07:34:21;;;;;;;45.92;36.75;;;;;;;;;;5097162;28;20285;-79
2022/12/02 07:36:48;;;;;;;46.70;35.88;;;;;;;;;;5095630;28;20251;-79
2022/12/02 07:39:15;;;;;;;52.13;39.85;;;;;;;;;;5096059;28;20209;-78
2022/12/02 07:41:42;;;;;;;47.38;35.17;;;;;;;;;;5095513;28;20208;-79
2022/12/02 07:44:09;;;;;;;53.80;38.22;;;;;;;;;;5095872;28;20224;-78
2022/12/02 07:46:38;;;;;;;42.85;35.38;;;;;;;;;;5096367;28;20232;-78
2022/12/02 07:49:05;;;;;;;52.33;37.83;;;;;;;;;;5096036;28;20208;-79
2022/12/02 07:51:32;;;;;;;49.88;39.42;;;;;;;;;;5096970;28;20706;-79
2022/12/02 07:53:59;;;;;;;57.60;41.05;;;;;;;;;;5095966;28;20585;-79
2022/12/02 07:56:26;;;;;;;54.75;40.95;;;;;;;;;;5096805;28;20228;-79
2022/12/02 07:58:53;;;;;;;55.15;40.03;;;;;;;;;;5097487;28;20223;-79
2022/12/02 08:01:20;;;;;;;55.75;39.47;;;;;;;;;;5101272;28;20280;-82
2022/12/02 08:03:49;;;;;;;49.88;40.13;;;;;;;;;;5105029;28;20219;-82
2022/12/02 08:06:16;;;;;;;52.75;39.15;;;;;;;;;;5105729;28;20232;-82
2022/12/02 08:08:43;;;;;;;57.58;38.40;;;;;;;;;;5109071;28;20547;-82
2022/12/02 08:11:10;;;;;;;51.53;37.33;;;;;;;;;;5108334;28;20295;-82
2022/12/02 08:13:37;;;;;;;39.92;33.50;;;;;;;;;;5104420;28;20215;-82
2022/12/02 08:16:04;;;;;;;56.05;39.17;;;;;;;;;;5106417;28;20222;-82
2022/12/02 08:18:32;;;;;;;60.72;39.40;;;;;;;;;;5105804;28;20205;-82
2022/12/02 08:21:02;;;;;;;54.78;39.17;;;;;;;;;;5106532;28;20211;-82
2022/12/02 08:23:29;;;;;;;63.60;42.83;;;;;;;;;;5104353;28;20222;-81
2022/12/02 08:25:56;;;;;;;60.85;41.15;;;;;;;;;;5104378;28;20228;-81
2022/12/02 08:28:23;;;;;;;52.63;37.08;;;;;;;;;;5105091;28;20199;-81
2022/12/02 08:30:50;;;;;;;53.95;37.85;;;;;;;;;;5105173;28;20204;-82
2022/12/02 08:33:17;;;;;;;49.63;34.85;;;;;;;;;;5103633;28;20207;-83
2022/12/02 08:35:44;;;;;;;61.35;41.13;;;;;;;;;;5103852;28;20223;-82
2022/12/02 08:38:13;;;;;;;42.05;33.00;;;;;;;;;;5104679;28;20236;-82
2022/12/02 08:40:40;;;;;;;56.58;38.92;;;;;;;;;;5104342;28;20204;-81
2022/12/02 08:43:07;;;;;;;51.47;39.08;;;;;;;;;;5104657;28;20575;-83
2022/12/02 08:45:34;;;;;;;64.95;41.03;;;;;;;;;;5102663;28;20592;-83
2022/12/02 08:48:01;;;;;;;60.08;39.40;;;;;;;;;;5105344;28;20210;-82
2022/12/02 08:50:29;;;;;;;57.50;39.22;;;;;;;;;;5104932;28;20213;-82
2022/12/02 08:52:56;;;;;;;57.13;41.97;;;;;;;;;;5104424;28;20207;-83
2022/12/02 08:55:24;;;;;;;54.85;41.25;;;;;;;;;;5091297;28;20224;-83
2022/12/02 08:57:51;;;;;;;57.65;40.20;;;;;;;;;;5085236;28;20205;-82
2022/12/02 09:00:18;;;;;;;57.85;43.38;;;;;;;;;;5081437;28;20213;-81
2022/12/02 09:02:45;;;;;;;60.30;42.67;;;;;;;;;;5080936;28;20212;-81
2022/12/02 09:05:13;;;;;;;56.30;41.45;;;;;;;;;;5079160;28;20722;-80
2022/12/02 09:07:40;;;;;;;59.70;41.88;;;;;;;;;;5080860;28;20208;-81
2022/12/02 09:10:08;;;;;;;67.80;45.20;;;;;;;;;;5080524;28;20209;-81
2022/12/02 09:12:37;;;;;;;61.08;43.85;;;;;;;;;;5078533;28;20206;-82
2022/12/02 09:15:04;;;;;;;64.07;43.72;;;;;;;;;;5079047;28;20200;-81
2022/12/02 09:17:32;;;;;;;61.65;41.75;;;;;;;;;;5080213;28;20199;-81
2022/12/02 09:19:59;;;;;;;60.00;43.67;;;;;;;;;;5080083;28;20212;-81
2022/12/02 09:22:26;;;;;;;56.80;39.13;;;;;;;;;;5079671;28;20215;-81
2022/12/02 09:24:53;;;;;;;63.45;43.55;;;;;;;;;;5078737;28;20227;-80
2022/12/02 09:27:20;;;;;;;58.55;42.03;;;;;;;;;;5083726;28;20220;-88
2022/12/02 09:29:49;;;;;;;61.15;43.45;;;;;;;;;;5096874;28;20215;-86
2022/12/02 09:32:16;;;;;;;55.22;40.65;;;;;;;;;;5096847;28;20204;-89
2022/12/02 09:34:43;;;;;;;63.63;42.33;;;;;;;;;;5098662;28;20555;-81
2022/12/02 09:37:10;;;;;;;55.00;38.80;;;;;;;;;;5099143;28;20315;-83
2022/12/02 09:39:37;;;;;;;62.42;41.08;;;;;;;;;;5099697;28;20208;-85
2022/12/02 09:42:05;;;;;;;59.30;43.30;;;;;;;;;;5099147;28;20211;-83
2022/12/02 09:44:32;;;;;;;56.30;40.38;;;;;;;;;;5102352;28;20223;-83
2022/12/02 09:47:00;;;;;;;56.72;41.53;;;;;;;;;;5103947;28;20228;-84
2022/12/02 09:49:27;;;;;;;57.47;41.58;;;;;;;;;;5104196;28;20210;-82
2022/12/02 09:51:58;;;;;;;143.63;87.70;;;;;;;;;;5104256;28;20203;-82
2022/12/02 09:54:25;;;;;;;54.13;40.53;;;;;;;;;;5100358;28;20215;-80
2022/12/02 09:56:52;;;;;;;51.17;40.75;;;;;;;;;;5101744;28;20227;-84
2022/12/02 09:59:21;;;;;;;56.78;42.20;;;;;;;;;;5102193;28;20218;-83
2022/12/02 10:01:49;;;;;;;51.22;40.65;;;;;;;;;;5102460;28;20253;-83
2022/12/02 10:04:19;;;;;;;65.47;43.67;;;;;;;;;;5101433;28;20210;-83
2022/12/02 10:06:50;;;;;;;52.58;39.00;;;;;;;;;;5102299;28;20242;-83
2022/12/02 10:09:18;;;;;;;57.17;42.60;;;;;;;;;;5102727;28;20672;-83
2022/12/02 10:11:45;;;;;;;60.25;43.15;;;;;;;;;;5103312;28;20201;-83
2022/12/02 10:14:14;;;;;;;68.25;43.30;;;;;;;;;;5102222;28;20209;-80
2022/12/02 10:16:41;;;;;;;57.67;43.38;;;;;;;;;;5102323;28;20216;-82
2022/12/02 10:19:08;;;;;;;62.97;42.05;;;;;;;;;;5104693;28;20199;-83
2022/12/02 10:21:37;;;;;;;57.95;42.28;;;;;;;;;;5103146;28;20203;-81
2022/12/02 10:24:06;;;;;;;61.65;42.55;;;;;;;;;;5104449;28;20207;-82
2022/12/02 10:26:42;;;;;;;57.05;41.83;;;;;;;;;;5103449;28;20239;-84
2022/12/02 10:29:10;;;;;;;60.55;42.55;;;;;;;;;;5100461;28;20192;-81
2022/12/02 10:31:38;;;;;;;60.83;43.30;;;;;;;;;;5100345;28;20207;-81
2022/12/02 10:34:08;;;;;;;52.20;43.63;;;;;;;;;;5099307;28;20203;-88
2022/12/02 10:36:37;;;;;;;50.38;40.60;;;;;;;;;;5096937;28;20242;-86
2022/12/02 10:39:17;;;;;;;55.30;42.63;;;;;;;;;;5098588;28;20261;-85
2022/12/02 10:41:45;;;;;;;33.40;29.88;;;;;;;;;;5100580;28;20188;-81
2022/12/02 10:44:14;;;;;;;55.13;40.95;;;;;;;;;;5100349;28;20203;-81
2022/12/02 10:46:42;;;;;;;49.17;39.20;;;;;;;;;;5102284;28;20227;-82
2022/12/02 10:49:29;;;;;;;52.25;39.50;;;;;;;;;;5101707;28;20212;-81
2022/12/02 10:52:00;;;;;;;45.55;38.13;;;;;;;;;;5099769;28;20208;-85
2022/12/02 10:54:28;;;;;;;55.22;41.92;;;;;;;;;;5099737;28;20203;-82
2022/12/02 10:56:55;;;;;;;44.67;39.85;;;;;;;;;;5099853;28;20220;-81
2022/12/02 10:59:23;;;;;;;46.22;38.65;;;;;;;;;;5099192;28;20682;-84
2022/12/02 11:01:50;;;;;;;49.47;38.72;;;;;;;;;;5100027;28;20212;-85
2022/12/02 11:04:17;;;;;;;55.15;38.92;;;;;;;;;;5098218;28;20211;-80
2022/12/02 11:06:45;;;;;;;43.38;37.95;;;;;;;;;;5098242;28;20238;-79
2022/12/02 11:09:17;;;;;;;49.70;37.90;;;;;;;;;;5095045;28;20213;-80
2022/12/02 11:11:45;;;;;;;50.08;39.13;;;;;;;;;;5095260;28;20199;-81
2022/12/02 11:14:13;;;;;;;44.72;37.13;;;;;;;;;;5095022;28;20215;-80
2022/12/02 11:16:58;;;;;;;47.28;41.40;;;;;;;;;;5098872;28;20216;-81
2022/12/02 11:19:45;;;;;;;37.88;33.90;;;;;;;;;;5099474;28;20207;-80
2022/12/02 11:22:30;;;;;;;44.67;39.35;;;;;;;;;;5099776;28;20195;-81
2022/12/02 11:24:59;;;;;;;43.50;37.50;;;;;;;;;;5098389;28;20196;-81
2022/12/02 11:27:26;;;;;;;38.63;33.65;;;;;;;;;;5098602;28;20686;-81
2022/12/02 11:30:11;;;;;;;41.67;35.60;;;;;;;;;;5098171;28;20781;-81
2022/12/02 11:32:48;;;;;;;44.60;39.78;;;;;;;;;;5099571;28;20211;-81
2022/12/02 11:35:17;;;;;;;44.65;33.40;;;;;;;;;;5095810;28;20250;-81
2022/12/02 11:37:44;;;;;;;38.55;34.53;;;;;;;;;;5096432;28;20663;-80
2022/12/02 11:40:30;;;;;;;38.63;34.53;;;;;;;;;;5096278;28;20204;-80
2022/12/02 11:43:12;;;;;;;40.50;35.10;;;;;;;;;;5095852;28;20208;-81
2022/12/02 11:45:58;;;;;;;38.70;34.47;;;;;;;;;;5095711;28;20635;-80
2022/12/02 11:48:25;;;;;;;40.50;35.70;;;;;;;;;;5096410;28;20679;-80
2022/12/02 11:50:55;;;;;;;41.33;35.20;;;;;;;;;;5098081;28;20211;-80
2022/12/02 11:53:23;;;;;;;38.90;33.75;;;;;;;;;;5097647;28;20207;-80
2022/12/02 11:55:51;;;;;;;35.90;32.13;;;;;;;;;;5097751;28;20226;-80
2022/12/02 11:58:20;;;;;;;37.65;33.63;;;;;;;;;;5098694;28;20205;-81
2022/12/02 12:01:02;;;;;;;41.42;36.92;;;;;;;;;;5098533;28;20211;-80
2022/12/02 12:03:30;;;;;;;41.28;36.75;;;;;;;;;;5096958;28;20286;-80
2022/12/02 12:06:07;;;;;;;37.22;33.35;;;;;;;;;;5097462;28;20231;-81
2022/12/02 12:08:35;;;;;;;37.53;33.63;;;;;;;;;;5098675;28;20199;-79
2022/12/02 12:11:16;;;;;;;41.75;37.15;;;;;;;;;;5097913;28;20294;-80
2022/12/02 12:13:56;;;;;;;38.20;34.15;;;;;;;;;;5099168;28;20206;-83
2022/12/02 12:16:25;;;;;;;36.45;32.85;;;;;;;;;;5100154;28;20234;-83
2022/12/02 12:18:52;;;;;;;43.20;37.55;;;;;;;;;;5098754;28;20223;-83
2022/12/02 12:21:41;;;;;;;42.60;37.15;;;;;;;;;;5097585;28;20657;-84
2022/12/02 12:24:28;;;;;;;38.97;34.88;;;;;;;;;;5097727;28;20245;-83
2022/12/02 12:26:56;;;;;;;35.83;32.08;;;;;;;;;;5100470;28;20218;-83
2022/12/02 12:29:24;;;;;;;42.05;37.05;;;;;;;;;;5102184;28;20207;-84
2022/12/02 12:31:54;;;;;;;46.00;37.65;;;;;;;;;;5101134;28;20238;-83
2022/12/02 12:34:21;;;;;;;43.45;36.17;;;;;;;;;;5101034;28;20197;-80
2022/12/02 12:36:48;;;;;;;41.33;36.83;;;;;;;;;;5096049;28;20592;-80
2022/12/02 12:39:15;;;;;;;46.20;38.63;;;;;;;;;;5095296;28;20204;-81
2022/12/02 12:41:42;;;;;;;43.30;37.60;;;;;;;;;;5094809;28;20576;-78
2022/12/02 12:44:10;;;;;;;46.92;37.35;;;;;;;;;;5095967;28;20211;-84
2022/12/02 12:46:37;;;;;;;47.45;38.08;;;;;;;;;;5095885;28;20672;-84
2022/12/02 12:49:05;;;;;;;45.22;38.67;;;;;;;;;;5097180;28;20207;-84
2022/12/02 12:51:32;;;;;;;45.35;37.33;;;;;;;;;;5097586;28;20203;-84
2022/12/02 12:53:59;;;;;;;42.22;36.15;;;;;;;;;;5097798;28;20183;-84
2022/12/02 12:56:26;;;;;;;40.42;34.50;;;;;;;;;;5098766;28;20557;-85
2022/12/02 12:58:53;;;;;;;46.28;37.80;;;;;;;;;;5097887;28;20673;-87
2022/12/02 13:01:21;;;;;;;44.58;37.17;;;;;;;;;;5096832;28;20204;-86
2022/12/02 13:03:48;;;;;;;39.72;35.42;;;;;;;;;;5097081;28;20222;-88
2022/12/02 13:06:17;;;;;;;50.40;38.85;;;;;;;;;;5097663;28;20825;-86
2022/12/02 13:08:44;;;;;;;43.90;38.08;;;;;;;;;;5097285;28;20203;-87
2022/12/02 13:11:11;;;;;;;47.15;37.40;;;;;;;;;;5101005;28;20215;-86
2022/12/02 13:13:38;;;;;;;49.95;38.75;;;;;;;;;;5097536;28;20208;-87
2022/12/02 13:16:06;;;;;;;44.33;37.08;;;;;;;;;;5097666;28;20224;-87
2022/12/02 13:18:33;;;;;;;46.92;38.17;;;;;;;;;;5098067;28;20579;-81
2022/12/02 13:21:00;;;;;;;43.22;37.75;;;;;;;;;;5099212;28;20214;-81
2022/12/02 13:23:28;;;;;;;41.65;36.53;;;;;;;;;;5097566;28;20211;-80
2022/12/02 13:25:56;;;;;;;44.47;37.45;;;;;;;;;;5099205;28;20219;-80
2022/12/02 13:28:23;;;;;;;40.90;36.55;;;;;;;;;;5098123;28;20211;-80
2022/12/02 13:30:50;;;;;;;52.58;40.45;;;;;;;;;;5099071;28;20203;-80
2022/12/02 13:33:17;;;;;;;48.88;39.78;;;;;;;;;;5099250;28;20817;-80
2022/12/02 13:35:45;;;;;;;43.58;38.60;;;;;;;;;;5098774;28;20234;-80
2022/12/02 13:38:12;;;;;;;40.65;36.05;;;;;;;;;;5099323;28;20665;-80
2022/12/02 13:40:40;;;;;;;39.28;34.78;;;;;;;;;;5098934;28;20204;-80
2022/12/02 13:43:07;;;;;;;46.85;39.50;;;;;;;;;;5098800;28;20203;-81
2022/12/02 13:45:35;;;;;;;37.83;33.72;;;;;;;;;;5101283;28;20231;-81
2022/12/02 13:48:02;;;;;;;41.47;36.60;;;;;;;;;;5098752;28;20216;-80
2022/12/02 13:50:29;;;;;;;41.55;34.30;;;;;;;;;;5099160;28;20209;-81
2022/12/02 13:52:56;;;;;;;45.20;35.72;;;;;;;;;;5097682;28;20229;-82
2022/12/02 13:55:23;;;;;;;40.55;36.33;;;;;;;;;;5098320;28;20585;-81
2022/12/02 13:57:51;;;;;;;41.47;36.00;;;;;;;;;;5100007;28;20199;-81
2022/12/02 14:00:19;;;;;;;46.88;38.08;;;;;;;;;;5098363;28;20232;-81
2022/12/02 14:02:46;;;;;;;48.90;41.03;;;;;;;;;;5098036;28;20208;-80
2022/12/02 14:05:13;;;;;;;44.45;36.97;;;;;;;;;;5096894;28;20326;-81
2022/12/02 14:07:40;;;;;;;46.92;37.92;;;;;;;;;;5097687;28;20230;-81
2022/12/02 14:10:08;;;;;;;47.50;40.50;;;;;;;;;;5099087;28;20202;-80
2022/12/02 14:12:35;;;;;;;51.83;40.60;;;;;;;;;;5098333;28;20214;-81
2022/12/02 14:15:04;;;;;;;45.22;38.25;;;;;;;;;;5098677;28;20215;-82
2022/12/02 14:17:31;;;;;;;47.88;40.38;;;;;;;;;;5101285;28;20220;-81
2022/12/02 14:19:58;;;;;;;43.63;38.90;;;;;;;;;;5101283;28;20206;-81
2022/12/02 14:22:25;;;;;;;45.38;39.33;;;;;;;;;;5099527;28;20206;-81
2022/12/02 14:24:53;;;;;;;43.97;37.75;;;;;;;;;;5099554;28;20203;-81
2022/12/02 14:27:20;;;;;;;43.17;37.38;;;;;;;;;;5103498;28;20682;-81
2022/12/02 14:29:48;;;;;;;42.45;37.90;;;;;;;;;;5101857;28;20572;-80